Time;durP1;ratioP1;P1;durP2;ratioP2;P2;SDS_P1;SDS_P2;PMS_P1;PMS_P2;Temp;Humidity;BMP_temperature;BMP_pressure;BME280_temperature;BME280_humidity;BME280_pressure;Samples;Min_cycle;Max_cycle;Signal;HPM_P1;HPM_P2
2023/07/12 00:01:18;;;;;;;3.67;1.38;;;18.90;99.90;;;;;;4965744;28;20050;-68
2023/07/12 00:03:45;;;;;;;2.47;1.38;;;18.90;99.90;;;;;;4938481;28;20057;-67
2023/07/12 00:06:19;;;;;;;2.45;1.25;;;18.80;99.90;;;;;;4964539;28;20504;-67
2023/07/12 00:08:45;;;;;;;4.68;1.30;;;18.80;99.90;;;;;;4952188;28;20086;-67
2023/07/12 00:11:20;;;;;;;2.05;1.10;;;18.80;99.90;;;;;;4940313;28;20035;-67
2023/07/12 00:13:46;;;;;;;2.65;1.25;;;18.80;99.90;;;;;;4970780;28;20054;-68
2023/07/12 00:16:24;;;;;;;1.25;1.10;;;18.80;99.90;;;;;;4950980;28;20544;-67
2023/07/12 00:18:51;;;;;;;3.05;1.40;;;18.80;99.90;;;;;;4951573;28;20069;-67
2023/07/12 00:21:22;;;;;;;2.75;1.63;;;18.80;99.90;;;;;;4969340;28;20051;-68
2023/07/12 00:23:57;;;;;;;1.75;1.10;;;18.80;99.90;;;;;;4948243;29;20054;-67
2023/07/12 00:26:35;;;;;;;5.53;1.65;;;18.70;99.90;;;;;;4950008;28;20049;-67
2023/07/12 00:29:04;;;;;;;5.30;2.10;;;18.70;99.90;;;;;;4949339;28;20062;-68
2023/07/12 00:31:31;;;;;;;3.85;1.10;;;18.70;99.90;;;;;;4952124;28;20051;-67
2023/07/12 00:33:56;;;;;;;4.72;1.40;;;18.70;99.90;;;;;;4967509;28;20046;-67
2023/07/12 00:36:25;;;;;;;2.05;1.58;;;18.70;99.90;;;;;;4924106;28;20047;-67
2023/07/12 00:38:52;;;;;;;1.30;1.20;;;18.70;99.90;;;;;;4963470;28;20039;-68
2023/07/12 00:41:42;;;;;;;2.10;1.80;;;18.60;99.90;;;;;;4942032;28;20050;-67
2023/07/12 00:44:16;;;;;;;9.90;1.40;;;18.70;99.90;;;;;;4963020;28;20398;-68
2023/07/12 00:46:47;;;;;;;2.60;1.30;;;18.60;99.90;;;;;;4958409;28;20051;-67
2023/07/12 00:49:13;;;;;;;3.35;1.58;;;18.60;99.90;;;;;;4968776;28;20050;-67
2023/07/12 00:51:52;;;;;;;1.95;1.48;;;18.60;99.90;;;;;;4969874;28;20078;-67
2023/07/12 00:54:20;;;;;;;1.23;1.13;;;18.50;99.90;;;;;;4949886;28;20126;-68
2023/07/12 00:56:46;;;;;;;2.80;1.45;;;18.50;99.90;;;;;;4952459;28;20057;-67
2023/07/12 00:59:23;;;;;;;2.92;1.50;;;18.50;99.90;;;;;;4950023;28;20051;-68
2023/07/12 01:01:52;;;;;;;1.83;1.50;;;18.50;99.90;;;;;;4951619;28;20061;-67
2023/07/12 01:04:24;;;;;;;2.00;1.80;;;18.50;99.90;;;;;;4947760;28;20145;-67
2023/07/12 01:06:50;;;;;;;2.08;1.70;;;18.50;99.90;;;;;;4968451;28;20047;-67
2023/07/12 01:09:17;;;;;;;3.13;1.73;;;18.50;99.90;;;;;;4951045;28;20070;-67
2023/07/12 01:11:45;;;;;;;4.50;1.60;;;18.40;99.90;;;;;;4950020;28;20046;-67
2023/07/12 01:14:16;;;;;;;1.42;1.30;;;18.50;99.90;;;;;;4969561;28;20051;-67
2023/07/12 01:16:48;;;;;;;6.85;1.70;;;18.50;99.90;;;;;;4950053;28;20086;-67
2023/07/12 01:19:14;;;;;;;2.85;1.55;;;18.40;99.90;;;;;;4951091;28;20546;-67
2023/07/12 01:21:45;;;;;;;3.00;1.55;;;18.40;99.90;;;;;;4968602;28;20050;-67
2023/07/12 01:24:12;;;;;;;2.20;1.55;;;18.40;99.90;;;;;;4950183;28;20403;-67
2023/07/12 01:26:50;;;;;;;5.57;1.60;;;18.40;99.90;;;;;;4968311;28;20156;-67
2023/07/12 01:29:16;;;;;;;3.77;1.37;;;18.30;99.90;;;;;;4948908;28;20422;-67
2023/07/12 01:31:44;;;;;;;4.10;1.83;;;18.30;99.90;;;;;;4951594;28;20039;-67
2023/07/12 01:34:10;;;;;;;2.38;1.15;;;18.30;99.90;;;;;;4947116;29;20491;-67
2023/07/12 01:36:36;;;;;;;2.47;1.45;;;18.30;99.90;;;;;;4941374;28;20558;-67
2023/07/12 01:39:04;;;;;;;1.40;1.30;;;18.20;99.90;;;;;;4951013;28;20051;-68
2023/07/12 01:41:31;;;;;;;4.05;1.50;;;18.20;99.90;;;;;;4949885;28;20038;-68
2023/07/12 01:43:57;;;;;;;3.65;1.40;;;18.20;99.90;;;;;;4969129;28;20109;-67
2023/07/12 01:46:23;;;;;;;7.38;1.30;;;18.20;99.90;;;;;;4948736;28;20441;-67
2023/07/12 01:48:49;;;;;;;5.97;1.38;;;18.10;99.90;;;;;;4951458;28;20051;-67
2023/07/12 01:51:17;;;;;;;8.13;1.50;;;18.10;99.90;;;;;;4933630;28;20055;-68
2023/07/12 01:53:42;;;;;;;3.13;1.10;;;18.10;99.90;;;;;;4951432;28;20085;-66
2023/07/12 01:56:09;;;;;;;4.15;1.02;;;18.10;99.90;;;;;;4968018;28;20125;-67
2023/07/12 01:58:35;;;;;;;7.47;1.25;;;18.10;99.90;;;;;;4967395;28;20105;-67
2023/07/12 02:01:01;;;;;;;6.65;1.50;;;18.10;99.90;;;;;;4935749;28;20055;-67
2023/07/12 02:03:27;;;;;;;5.72;1.23;;;18.10;99.90;;;;;;4962600;28;20477;-67
2023/07/12 02:05:53;;;;;;;2.20;1.08;;;18.00;99.90;;;;;;4950998;28;20094;-67
2023/07/12 02:08:20;;;;;;;2.53;0.73;;;18.00;99.90;;;;;;4943215;28;20050;-67
2023/07/12 02:10:46;;;;;;;2.65;0.98;;;18.00;99.90;;;;;;4987957;28;20098;-67
2023/07/12 02:13:12;;;;;;;0.90;0.90;;;18.00;99.90;;;;;;4969398;28;20136;-67
2023/07/12 02:15:38;;;;;;;4.85;1.33;;;18.00;99.90;;;;;;4960061;28;20042;-67
2023/07/12 02:18:04;;;;;;;6.63;1.20;;;18.00;99.90;;;;;;4986879;28;20046;-66
2023/07/12 02:20:30;;;;;;;5.70;1.17;;;17.90;99.90;;;;;;4974942;28;20034;-68
2023/07/12 02:22:56;;;;;;;3.17;1.30;;;17.90;99.90;;;;;;4959645;28;20050;-67
2023/07/12 02:25:22;;;;;;;3.20;1.10;;;17.90;99.90;;;;;;4965516;28;20519;-67
2023/07/12 02:27:48;;;;;;;5.00;1.50;;;17.90;99.90;;;;;;4953823;28;20089;-67
2023/07/12 02:30:18;;;;;;;1.77;1.33;;;17.90;99.90;;;;;;4965847;28;20067;-67
2023/07/12 02:32:45;;;;;;;5.97;1.35;;;17.80;99.90;;;;;;4969698;28;20054;-67
2023/07/12 02:35:11;;;;;;;7.30;1.70;;;17.80;99.90;;;;;;4969516;28;20124;-67
2023/07/12 02:37:38;;;;;;;3.63;1.15;;;17.80;99.90;;;;;;4968950;28;20061;-67
2023/07/12 02:40:05;;;;;;;5.78;1.40;;;17.70;99.90;;;;;;4987459;28;20053;-68
2023/07/12 02:42:31;;;;;;;10.60;1.25;;;17.70;99.90;;;;;;4970734;28;20716;-67
2023/07/12 02:44:57;;;;;;;1.40;1.23;;;17.70;99.90;;;;;;4970789;28;20123;-67
2023/07/12 02:47:23;;;;;;;4.43;1.45;;;17.70;99.90;;;;;;4972812;28;20058;-67
2023/07/12 02:49:49;;;;;;;5.07;1.70;;;17.60;99.90;;;;;;4990965;28;20042;-68
2023/07/12 02:52:16;;;;;;;6.72;1.35;;;17.60;99.90;;;;;;4956873;28;20662;-67
2023/07/12 02:54:41;;;;;;;5.75;1.50;;;17.50;99.90;;;;;;4990703;28;20385;-67
2023/07/12 02:57:10;;;;;;;6.25;1.40;;;17.50;99.90;;;;;;4991514;28;20039;-67
2023/07/12 02:59:36;;;;;;;2.55;1.52;;;17.50;99.90;;;;;;4972111;28;20054;-67
2023/07/12 03:02:03;;;;;;;5.05;1.45;;;17.50;99.90;;;;;;4973159;28;20039;-67
2023/07/12 03:04:29;;;;;;;7.32;1.60;;;17.50;99.90;;;;;;4971811;28;20046;-67
2023/07/12 03:06:55;;;;;;;8.73;2.17;;;17.50;99.90;;;;;;4990968;28;20062;-67
2023/07/12 03:09:21;;;;;;;3.05;1.75;;;17.50;99.90;;;;;;4956904;28;20047;-67
2023/07/12 03:11:48;;;;;;;6.95;2.00;;;17.50;99.90;;;;;;4928755;29;20066;-67
2023/07/12 03:14:21;;;;;;;9.75;1.80;;;17.40;99.90;;;;;;4968362;28;20461;-67
2023/07/12 03:16:47;;;;;;;6.25;1.80;;;17.50;99.90;;;;;;4969889;28;20304;-67
2023/07/12 03:19:14;;;;;;;5.70;1.83;;;17.50;99.90;;;;;;4970428;28;20145;-67
2023/07/12 03:21:40;;;;;;;5.53;1.70;;;17.50;99.90;;;;;;4952435;28;20050;-67
2023/07/12 03:24:07;;;;;;;8.85;1.60;;;17.40;99.90;;;;;;4971440;28;20053;-67
2023/07/12 03:26:33;;;;;;;5.20;1.85;;;17.40;99.90;;;;;;4952297;28;20050;-67
2023/07/12 03:28:59;;;;;;;5.55;2.00;;;17.40;99.90;;;;;;4954283;28;20050;-67
2023/07/12 03:31:28;;;;;;;7.50;2.00;;;17.40;99.90;;;;;;4952972;28;20047;-68
2023/07/12 03:33:55;;;;;;;4.88;1.73;;;17.40;99.90;;;;;;4969938;28;20059;-67
2023/07/12 03:36:24;;;;;;;4.80;1.73;;;17.40;99.90;;;;;;4954378;28;21760;-67
2023/07/12 03:38:50;;;;;;;;;;;17.40;99.90;;;;;;4952361;28;20093;-68
2023/07/12 03:41:16;;;;;;;17.50;2.70;;;17.30;99.90;;;;;;4971230;28;19969;-67
2023/07/12 03:43:42;;;;;;;11.30;2.05;;;17.20;99.90;;;;;;4968909;28;20055;-67
2023/07/12 03:46:07;;;;;;;7.55;1.67;;;17.30;99.90;;;;;;4953683;28;20046;-67
2023/07/12 03:48:33;;;;;;;6.97;1.85;;;17.20;99.90;;;;;;4952329;28;20101;-67
2023/07/12 03:50:59;;;;;;;5.50;2.55;;;17.20;99.90;;;;;;4952947;28;20046;-67
2023/07/12 03:53:28;;;;;;;7.55;2.00;;;17.20;99.90;;;;;;4969921;28;20105;-67
2023/07/12 03:56:03;;;;;;;14.95;2.55;;;17.20;99.90;;;;;;4951866;28;20066;-67
2023/07/12 03:58:34;;;;;;;7.05;2.10;;;17.20;99.90;;;;;;4953671;28;20072;-67
2023/07/12 04:01:08;;;;;;;10.38;2.22;;;17.30;99.90;;;;;;4969277;28;20489;-68
2023/07/12 04:03:34;;;;;;;9.27;1.73;;;17.20;99.90;;;;;;4957013;28;20051;-68
2023/07/12 04:06:01;;;;;;;5.65;1.98;;;17.20;99.90;;;;;;4970281;28;20035;-67
2023/07/12 04:08:27;;;;;;;15.00;2.45;;;17.20;99.90;;;;;;4972789;28;20066;-68
2023/07/12 04:10:54;;;;;;;9.82;1.92;;;17.20;99.90;;;;;;4958522;28;20058;-67
2023/07/12 04:13:21;;;;;;;7.38;2.38;;;17.20;99.90;;;;;;4988273;28;20053;-67
2023/07/12 04:15:46;;;;;;;9.60;2.22;;;17.20;99.90;;;;;;4989248;28;20165;-67
2023/07/12 04:18:12;;;;;;;10.95;1.95;;;17.20;99.90;;;;;;4970912;28;20062;-67
2023/07/12 04:20:38;;;;;;;12.23;2.20;;;17.20;99.90;;;;;;4972082;28;20058;-67
2023/07/12 04:23:05;;;;;;;6.40;2.33;;;17.20;99.90;;;;;;4988818;28;20050;-66
2023/07/12 04:25:32;;;;;;;5.85;2.70;;;17.20;99.90;;;;;;4971319;28;20042;-66
2023/07/12 04:27:58;;;;;;;8.35;2.45;;;17.20;99.90;;;;;;4972314;28;20456;-67
2023/07/12 04:30:24;;;;;;;7.93;2.15;;;17.10;99.90;;;;;;4951727;28;20090;-66
2023/07/12 04:32:52;;;;;;;17.98;2.58;;;17.20;99.90;;;;;;4986397;28;20039;-67
2023/07/12 04:35:19;;;;;;;4.90;1.45;;;17.20;99.90;;;;;;4970369;28;20097;-66
2023/07/12 04:37:46;;;;;;;8.48;1.83;;;17.20;99.90;;;;;;4989263;28;20043;-67
2023/07/12 04:40:13;;;;;;;10.35;2.08;;;17.20;99.90;;;;;;4988092;28;20064;-67
2023/07/12 04:42:39;;;;;;;11.68;2.03;;;17.30;99.90;;;;;;4971269;28;20045;-66
2023/07/12 04:45:05;;;;;;;14.60;2.10;;;17.20;99.90;;;;;;4988933;28;20428;-66
2023/07/12 04:47:31;;;;;;;8.73;1.70;;;17.20;99.90;;;;;;4970688;28;20050;-67
2023/07/12 04:49:56;;;;;;;18.15;2.13;;;17.20;99.90;;;;;;4988843;28;20054;-67
2023/07/12 04:52:22;;;;;;;10.77;2.35;;;17.30;99.90;;;;;;4988414;28;20054;-67
2023/07/12 04:54:48;;;;;;;14.18;1.95;;;17.30;99.90;;;;;;4970954;28;20050;-67
2023/07/12 04:57:13;;;;;;;6.97;1.98;;;17.30;99.90;;;;;;4953942;28;20078;-67
2023/07/12 04:59:39;;;;;;;12.18;2.63;;;17.30;99.90;;;;;;4988953;28;20455;-67
2023/07/12 05:02:06;;;;;;;15.13;2.60;;;17.20;99.90;;;;;;4964234;28;20043;-67
2023/07/12 05:04:31;;;;;;;8.60;1.80;;;17.20;99.90;;;;;;4979435;28;20042;-67
2023/07/12 05:06:57;;;;;;;7.95;2.03;;;17.20;99.90;;;;;;4970772;28;20384;-67
2023/07/12 05:09:23;;;;;;;11.05;1.80;;;17.20;99.90;;;;;;4962813;28;20058;-67
2023/07/12 05:11:50;;;;;;;7.47;1.77;;;17.10;99.90;;;;;;4943087;28;20050;-68
2023/07/12 05:14:16;;;;;;;8.05;1.98;;;17.20;99.90;;;;;;4966310;28;20129;-67
2023/07/12 05:16:42;;;;;;;6.60;1.95;;;17.20;99.90;;;;;;4971028;28;20124;-68
2023/07/12 05:19:08;;;;;;;8.35;1.80;;;17.10;99.90;;;;;;4987473;28;20056;-66
2023/07/12 05:21:34;;;;;;;15.05;2.42;;;17.10;99.90;;;;;;4954086;28;20062;-67
2023/07/12 05:24:00;;;;;;;14.95;2.13;;;17.20;99.90;;;;;;4987797;28;20129;-67
2023/07/12 05:26:26;;;;;;;5.25;1.83;;;17.20;99.90;;;;;;4970354;28;20046;-67
2023/07/12 05:28:52;;;;;;;13.60;2.60;;;17.20;99.90;;;;;;4988091;28;20508;-67
2023/07/12 05:31:18;;;;;;;6.95;1.80;;;17.20;99.90;;;;;;4969598;28;20050;-67
2023/07/12 05:33:46;;;;;;;11.07;2.83;;;17.30;99.90;;;;;;4971259;28;20511;-67
2023/07/12 05:36:14;;;;;;;16.30;2.67;;;17.40;99.90;;;;;;4986699;28;20042;-67
2023/07/12 05:38:39;;;;;;;14.25;2.10;;;17.40;99.90;;;;;;4970973;28;20511;-67
2023/07/12 05:41:05;;;;;;;13.43;2.13;;;17.50;99.90;;;;;;4970373;28;20373;-67
2023/07/12 05:43:31;;;;;;;8.15;2.25;;;17.50;99.90;;;;;;4987415;28;20453;-67
2023/07/12 05:45:56;;;;;;;8.98;2.38;;;17.50;99.90;;;;;;4970784;28;20060;-66
2023/07/12 05:48:23;;;;;;;7.07;2.10;;;17.50;99.90;;;;;;4969297;28;20054;-67
2023/07/12 05:50:52;;;;;;;12.70;2.70;;;17.60;99.90;;;;;;4970614;28;20057;-67
2023/07/12 05:53:17;;;;;;;10.70;2.30;;;17.70;99.90;;;;;;4986566;28;20046;-67
2023/07/12 05:55:43;;;;;;;10.18;2.65;;;17.70;99.90;;;;;;4988627;28;20100;-67
2023/07/12 05:58:09;;;;;;;9.38;2.45;;;17.80;99.90;;;;;;4969356;28;20053;-67
2023/07/12 06:00:35;;;;;;;13.68;2.30;;;17.80;99.90;;;;;;4987168;28;20045;-67
2023/07/12 06:03:01;;;;;;;12.30;2.30;;;17.80;99.90;;;;;;4987522;28;20567;-67
2023/07/12 06:05:27;;;;;;;5.57;2.05;;;17.80;99.90;;;;;;4986206;28;20042;-67
2023/07/12 06:07:52;;;;;;;6.43;2.38;;;17.80;99.90;;;;;;4985670;28;20596;-67
2023/07/12 06:10:18;;;;;;;13.25;2.45;;;17.80;99.90;;;;;;4979326;28;20073;-67
2023/07/12 06:12:44;;;;;;;6.90;2.22;;;17.80;99.90;;;;;;4970031;28;20054;-67
2023/07/12 06:15:10;;;;;;;9.80;2.45;;;18.00;99.90;;;;;;4952414;28;20466;-67
2023/07/12 06:17:36;;;;;;;9.45;2.65;;;18.10;99.90;;;;;;4971101;28;20034;-67
2023/07/12 06:20:03;;;;;;;8.27;2.42;;;18.10;99.90;;;;;;4958121;28;20101;-67
2023/07/12 06:22:29;;;;;;;7.03;2.10;;;18.10;99.90;;;;;;4957416;28;20066;-66
2023/07/12 06:24:55;;;;;;;9.30;2.25;;;18.10;99.90;;;;;;4953691;28;20054;-66
2023/07/12 06:27:21;;;;;;;10.57;3.08;;;18.00;99.90;;;;;;4981397;28;20049;-68
2023/07/12 06:29:47;;;;;;;10.98;2.13;;;17.90;99.90;;;;;;4984675;28;20046;-67
2023/07/12 06:32:13;;;;;;;11.98;2.95;;;17.90;99.90;;;;;;4967102;28;20081;-67
2023/07/12 06:34:39;;;;;;;7.80;2.15;;;17.90;99.90;;;;;;4991326;28;20046;-68
2023/07/12 06:37:08;;;;;;;8.80;2.28;;;17.90;99.90;;;;;;4989864;28;20370;-67
2023/07/12 06:39:35;;;;;;;8.07;2.47;;;17.90;99.90;;;;;;4973162;28;20425;-69
2023/07/12 06:42:02;;;;;;;11.85;2.35;;;18.00;99.90;;;;;;4973660;28;20463;-67
2023/07/12 06:44:27;;;;;;;12.05;3.17;;;18.10;99.90;;;;;;4972339;28;20065;-68
2023/07/12 06:46:53;;;;;;;5.47;2.22;;;18.30;99.90;;;;;;4973919;28;20473;-68
2023/07/12 06:49:19;;;;;;;6.22;2.58;;;18.40;99.90;;;;;;4982156;28;20129;-67
2023/07/12 06:51:46;;;;;;;17.17;3.40;;;18.50;99.90;;;;;;4955609;28;20050;-68
2023/07/12 06:54:16;;;;;;;7.03;2.25;;;18.60;99.90;;;;;;4972382;28;20054;-68
2023/07/12 06:56:43;;;;;;;8.65;2.80;;;18.70;99.90;;;;;;4972749;28;20050;-68
2023/07/12 06:59:09;;;;;;;15.02;2.60;;;18.80;99.90;;;;;;4990043;28;20081;-68
2023/07/12 07:01:36;;;;;;;11.43;2.92;;;18.90;99.90;;;;;;4989230;28;20042;-68
2023/07/12 07:04:03;;;;;;;7.18;2.20;;;19.00;99.90;;;;;;4990255;28;20070;-68
2023/07/12 07:06:29;;;;;;;11.70;2.80;;;19.10;99.90;;;;;;4962599;28;20050;-68
2023/07/12 07:08:55;;;;;;;8.77;2.83;;;19.20;99.90;;;;;;4970503;28;20050;-68
2023/07/12 07:11:21;;;;;;;8.48;2.60;;;19.20;99.90;;;;;;4956141;28;20409;-68
2023/07/12 07:13:50;;;;;;;15.57;3.10;;;19.20;99.90;;;;;;4957110;28;20058;-68
2023/07/12 07:16:16;;;;;;;10.00;2.35;;;19.20;99.90;;;;;;4972114;28;20049;-67
2023/07/12 07:18:42;;;;;;;7.05;1.95;;;19.10;99.90;;;;;;4980122;28;20113;-67
2023/07/12 07:21:08;;;;;;;5.00;1.77;;;19.20;99.90;;;;;;4981244;28;20038;-67
2023/07/12 07:23:34;;;;;;;6.18;2.63;;;19.50;99.90;;;;;;4968565;28;20054;-68
2023/07/12 07:26:08;;;;;;;14.02;2.67;;;19.70;99.90;;;;;;4988239;28;20056;-69
2023/07/12 07:28:34;;;;;;;7.40;2.47;;;19.80;99.90;;;;;;4965728;28;20488;-67
2023/07/12 07:31:00;;;;;;;8.05;2.40;;;20.00;99.90;;;;;;4966672;28;20175;-67
2023/07/12 07:33:27;;;;;;;11.02;2.50;;;19.90;99.90;;;;;;4989466;28;20531;-68
2023/07/12 07:35:54;;;;;;;4.43;1.95;;;20.10;99.90;;;;;;4968608;28;20680;-68
2023/07/12 07:38:25;;;;;;;4.97;1.98;;;20.40;99.90;;;;;;4967968;28;20149;-67
2023/07/12 07:40:51;;;;;;;9.73;2.35;;;20.70;99.90;;;;;;4972582;28;20410;-68
2023/07/12 07:43:17;;;;;;;9.13;2.00;;;20.70;99.90;;;;;;4971190;28;20035;-68
2023/07/12 07:45:43;;;;;;;6.63;1.80;;;20.60;99.90;;;;;;4970500;28;20062;-68
2023/07/12 07:48:10;;;;;;;10.48;2.75;;;20.80;99.90;;;;;;4967936;28;21292;-67
2023/07/12 07:50:41;;;;;;;7.65;2.25;;;20.80;99.90;;;;;;4978906;28;20077;-67
2023/07/12 07:53:06;;;;;;;7.22;1.60;;;20.70;99.90;;;;;;4957911;28;20055;-68
2023/07/12 07:55:32;;;;;;;9.45;2.10;;;20.50;99.90;;;;;;4988394;28;20038;-68
2023/07/12 07:57:58;;;;;;;7.38;1.85;;;20.70;99.90;;;;;;4970544;28;20571;-67
2023/07/12 08:00:24;;;;;;;8.40;2.40;;;20.70;99.90;;;;;;4955114;28;20050;-67
2023/07/12 08:02:50;;;;;;;6.28;1.50;;;20.80;99.90;;;;;;4977798;28;20073;-67
2023/07/12 08:05:16;;;;;;;6.13;2.20;;;20.60;99.90;;;;;;4987983;28;20589;-68
2023/07/12 08:07:47;;;;;;;4.65;1.77;;;20.30;99.90;;;;;;4988278;28;20130;-67
2023/07/12 08:10:17;;;;;;;6.45;1.73;;;20.10;99.90;;;;;;4984504;28;20162;-67
2023/07/12 08:12:43;;;;;;;11.52;1.95;;;19.80;99.90;;;;;;4979662;28;20046;-68
2023/07/12 08:15:10;;;;;;;10.40;2.00;;;19.70;99.90;;;;;;4965559;28;20050;-68
2023/07/12 08:17:36;;;;;;;8.88;2.13;;;20.10;99.90;;;;;;4969578;28;20049;-68
2023/07/12 08:20:04;;;;;;;8.43;2.55;;;20.40;99.90;;;;;;4969911;28;20053;-68
2023/07/12 08:22:31;;;;;;;16.60;2.30;;;20.60;99.90;;;;;;4951773;28;20078;-68
2023/07/12 08:24:56;;;;;;;4.88;1.60;;;20.60;99.90;;;;;;4985966;28;20152;-68
2023/07/12 08:27:22;;;;;;;5.22;1.70;;;20.70;99.90;;;;;;4969470;28;20671;-67
2023/07/12 08:29:48;;;;;;;6.10;2.13;;;20.70;99.90;;;;;;4967646;28;20054;-68
2023/07/12 08:32:14;;;;;;;8.95;2.30;;;20.80;99.90;;;;;;4982701;28;20080;-67
2023/07/12 08:34:40;;;;;;;6.22;1.88;;;21.00;99.90;;;;;;4962940;28;20057;-68
2023/07/12 08:37:06;;;;;;;8.07;1.95;;;20.90;99.90;;;;;;4978478;28;20050;-67
2023/07/12 08:39:32;;;;;;;7.80;2.13;;;20.80;99.90;;;;;;4958137;28;20514;-67
2023/07/12 08:41:59;;;;;;;8.48;1.58;;;20.70;99.90;;;;;;4967043;28;20062;-67
2023/07/12 08:44:24;;;;;;;12.57;2.47;;;20.60;99.90;;;;;;4972492;28;20351;-67
2023/07/12 08:46:56;;;;;;;12.95;2.53;;;20.60;99.90;;;;;;4934610;28;20047;-67
2023/07/12 08:49:24;;;;;;;5.80;1.75;;;20.40;99.90;;;;;;4952184;28;20054;-67
2023/07/12 08:51:51;;;;;;;8.00;2.15;;;20.20;99.90;;;;;;4959418;28;20463;-67
2023/07/12 08:54:23;;;;;;;5.68;2.47;;;20.00;99.90;;;;;;4981584;28;20093;-68
2023/07/12 08:56:56;;;;;;;9.10;2.28;;;19.80;99.90;;;;;;4983029;28;20159;-68
2023/07/12 08:59:22;;;;;;;10.43;2.38;;;19.60;99.90;;;;;;4968293;28;20073;-68
2023/07/12 09:01:53;;;;;;;5.55;2.20;;;19.80;99.90;;;;;;4979140;28;20497;-68
2023/07/12 09:04:23;;;;;;;9.18;2.28;;;19.80;99.90;;;;;;4972335;28;20513;-68
2023/07/12 09:07:00;;;;;;;2.92;1.30;;;19.80;99.90;;;;;;4958445;28;20053;-68
2023/07/12 09:09:27;;;;;;;6.38;2.80;;;19.70;99.90;;;;;;4976275;28;20393;-67
2023/07/12 09:11:54;;;;;;;9.68;2.05;;;19.60;99.90;;;;;;4967409;28;20054;-67
2023/07/12 09:14:23;;;;;;;7.53;2.25;;;19.60;99.90;;;;;;4948617;28;20054;-68
2023/07/12 09:16:56;;;;;;;8.05;2.10;;;19.60;99.90;;;;;;4980918;28;20086;-68
2023/07/12 09:19:25;;;;;;;6.50;2.20;;;19.70;99.90;;;;;;4961722;28;20473;-68
2023/07/12 09:21:56;;;;;;;4.93;1.80;;;19.70;99.90;;;;;;4966145;28;20042;-67
2023/07/12 09:24:24;;;;;;;7.85;1.77;;;19.70;99.90;;;;;;4986084;28;20065;-68
2023/07/12 09:26:51;;;;;;;6.07;1.43;;;19.90;99.90;;;;;;4980951;28;20050;-68
2023/07/12 09:29:27;;;;;;;5.70;1.50;;;20.00;99.90;;;;;;4983064;28;20498;-68
2023/07/12 09:31:59;;;;;;;5.55;1.60;;;20.00;99.90;;;;;;4988882;28;20095;-69
2023/07/12 09:34:34;;;;;;;6.15;1.90;;;20.00;99.90;;;;;;4984268;28;20046;-67
2023/07/12 09:37:00;;;;;;;7.10;1.45;;;20.00;99.90;;;;;;4984138;28;20063;-68
2023/07/12 09:39:27;;;;;;;4.90;1.60;;;19.90;99.90;;;;;;4986787;28;20408;-68
2023/07/12 09:42:01;;;;;;;5.13;1.30;;;20.00;99.90;;;;;;4974850;28;20568;-68
2023/07/12 09:44:27;;;;;;;6.78;1.50;;;20.10;99.90;;;;;;4962645;28;20050;-67
2023/07/12 09:47:05;;;;;;;4.55;1.40;;;20.40;99.90;;;;;;4968225;28;20054;-68
2023/07/12 09:49:53;;;;;;;4.10;1.23;;;20.90;99.90;;;;;;4966083;28;20058;-67
2023/07/12 09:52:33;;;;;;;1.75;1.00;;;21.20;99.90;;;;;;4967530;28;20050;-67
2023/07/12 09:55:09;;;;;;;5.72;1.30;;;21.50;99.90;;;;;;4960544;28;20046;-68
2023/07/12 09:57:51;;;;;;;7.63;1.48;;;21.70;99.60;;;;;;4981823;28;20114;-68
2023/07/12 10:00:29;;;;;;;3.58;1.30;;;21.80;99.90;;;;;;4974585;28;20050;-68
2023/07/12 10:03:13;;;;;;;4.97;1.92;;;21.80;97.70;;;;;;4983002;28;20177;-67
2023/07/12 10:06:01;;;;;;;4.60;1.35;;;21.70;96.70;;;;;;4980267;28;20121;-68
2023/07/12 10:08:45;;;;;;;4.10;1.23;;;21.60;95.90;;;;;;4980730;28;20042;-67
2023/07/12 10:11:21;;;;;;;5.05;1.50;;;21.70;98.40;;;;;;4956294;28;20050;-68
2023/07/12 10:13:56;;;;;;;5.65;1.55;;;21.70;95.90;;;;;;4984534;28;20516;-68
2023/07/12 10:16:26;;;;;;;12.68;2.00;;;21.50;91.60;;;;;;4979143;28;20042;-68
2023/07/12 10:18:53;;;;;;;6.72;1.60;;;21.30;92.80;;;;;;4968242;28;20054;-68
2023/07/12 10:21:25;;;;;;;7.68;1.85;;;21.10;96.30;;;;;;4983578;28;20069;-68
2023/07/12 10:23:59;;;;;;;2.65;1.15;;;21.00;98.00;;;;;;4972839;28;20173;-68
2023/07/12 10:26:25;;;;;;;5.47;1.70;;;20.90;98.00;;;;;;4967107;28;20104;-68
2023/07/12 10:29:12;;;;;;;3.03;1.40;;;21.00;99.90;;;;;;4986826;28;20166;-68
2023/07/12 10:31:51;;;;;;;4.55;1.35;;;21.20;99.90;;;;;;4968517;28;20530;-68
2023/07/12 10:34:30;;;;;;;3.05;1.23;;;21.30;99.90;;;;;;4968397;28;20101;-68
2023/07/12 10:37:01;;;;;;;6.40;1.55;;;21.60;99.90;;;;;;4987170;28;20051;-69
2023/07/12 10:39:28;;;;;;;4.97;1.52;;;21.70;97.60;;;;;;4979568;28;20043;-68
2023/07/12 10:42:03;;;;;;;4.47;1.20;;;21.80;93.40;;;;;;4983563;28;20050;-68
2023/07/12 10:44:43;;;;;;;5.40;1.38;;;21.80;90.80;;;;;;4967970;28;20126;-68
2023/07/12 10:47:16;;;;;;;4.70;1.35;;;21.60;89.40;;;;;;4976443;28;20070;-69
2023/07/12 10:49:47;;;;;;;4.50;1.45;;;21.70;94.60;;;;;;4962749;28;20054;-68
2023/07/12 10:52:41;;;;;;;8.70;1.65;;;21.70;91.60;;;;;;4984465;28;20046;-69
2023/07/12 10:55:35;;;;;;;4.38;1.30;;;21.70;94.70;;;;;;4964255;28;20125;-69
2023/07/12 10:58:41;;;;;;;4.10;1.50;;;21.70;94.60;;;;;;4983609;28;20117;-69
2023/07/12 11:01:36;;;;;;;6.43;1.38;;;21.50;93.90;;;;;;4978473;28;20121;-68
2023/07/12 11:04:12;;;;;;;4.50;1.20;;;21.50;92.30;;;;;;4981771;28;20043;-68
2023/07/12 11:07:00;;;;;;;5.63;1.30;;;21.80;95.40;;;;;;4982711;28;20064;-68
2023/07/12 11:09:47;;;;;;;3.17;1.42;;;21.90;93.30;;;;;;4984692;28;20042;-68
2023/07/12 11:12:13;;;;;;;7.07;1.52;;;21.80;93.10;;;;;;4948049;28;20043;-68
2023/07/12 11:14:39;;;;;;;6.28;1.30;;;21.60;90.60;;;;;;4952992;28;20054;-68
2023/07/12 11:17:10;;;;;;;2.97;1.17;;;21.30;86.30;;;;;;4964573;28;20047;-68
2023/07/12 11:19:39;;;;;;;1.67;1.02;;;21.10;85.60;;;;;;4965432;28;20046;-67
2023/07/12 11:22:19;;;;;;;1.50;0.90;;;21.20;94.40;;;;;;4967719;28;20043;-68
2023/07/12 11:24:45;;;;;;;9.43;1.30;;;21.20;85.60;;;;;;4968505;28;20050;-68
2023/07/12 11:27:25;;;;;;;1.15;0.75;;;21.40;90.60;;;;;;4969536;28;20045;-68
2023/07/12 11:29:56;;;;;;;5.70;1.40;;;21.30;72.50;;;;;;4940194;28;20121;-69
2023/07/12 11:32:29;;;;;;;4.35;1.13;;;21.10;78.40;;;;;;4960556;28;20122;-68
2023/07/12 11:35:36;;;;;;;3.20;1.13;;;21.10;72.70;;;;;;4967916;28;20142;-68
2023/07/12 11:38:04;;;;;;;2.88;0.90;;;21.00;84.80;;;;;;4917971;28;20062;-68
2023/07/12 11:40:35;;;;;;;3.08;1.10;;;21.20;77.70;;;;;;4939907;28;20062;-68
2023/07/12 11:43:21;;;;;;;4.65;1.35;;;21.40;77.80;;;;;;4965293;28;20129;-68
2023/07/12 11:45:47;;;;;;;4.28;0.93;;;21.60;73.30;;;;;;4959158;28;20051;-68
2023/07/12 11:48:14;;;;;;;6.25;0.88;;;21.70;71.90;;;;;;4965990;28;20047;-68
2023/07/12 11:50:40;;;;;;;2.00;0.70;;;21.70;63.90;;;;;;4949330;28;20050;-68
2023/07/12 11:53:06;;;;;;;3.50;1.35;;;21.70;61.10;;;;;;4952622;28;20553;-69
2023/07/12 11:55:34;;;;;;;3.42;0.90;;;21.60;41.50;;;;;;4950040;28;20047;-68
2023/07/12 11:58:12;;;;;;;3.33;0.85;;;21.50;47.90;;;;;;4965413;28;20043;-68
2023/07/12 12:00:38;;;;;;;3.30;1.08;;;21.70;44.50;;;;;;4924938;28;20093;-68
2023/07/12 12:03:07;;;;;;;2.28;0.93;;;21.80;41.70;;;;;;4945316;29;20059;-68
2023/07/12 12:05:34;;;;;;;4.60;0.90;;;21.80;26.10;;;;;;4958788;28;20105;-68
2023/07/12 12:08:03;;;;;;;3.10;1.30;;;21.70;35.20;;;;;;4936769;28;20043;-68
2023/07/12 12:10:35;;;;;;;2.65;1.33;;;21.80;39.20;;;;;;4938628;28;20065;-69
2023/07/12 12:13:14;;;;;;;2.65;0.70;;;21.80;23.20;;;;;;4976354;28;20125;-69
2023/07/12 12:15:48;;;;;;;2.72;0.65;;;21.80;19.30;;;;;;4968723;28;20137;-69
2023/07/12 12:18:20;;;;;;;6.15;1.25;;;21.70;4.90;;;;;;4951092;28;20046;-68
2023/07/12 12:21:02;;;;;;;1.38;0.63;;;21.50;14.10;;;;;;4980091;28;20046;-68
2023/07/12 12:23:38;;;;;;;1.40;0.45;;;21.70;17.30;;;;;;4985684;28;20058;-68
2023/07/12 12:26:19;;;;;;;1.23;0.55;;;21.80;22.60;;;;;;4969726;28;20050;-68
2023/07/12 12:28:51;;;;;;;1.38;0.57;;;21.90;1.50;;;;;;4978014;28;20042;-69
2023/07/12 12:31:22;;;;;;;2.65;1.60;;;22.10;3.40;;;;;;4976515;28;20057;-69
2023/07/12 12:34:01;;;;;;;2.72;1.33;;;22.30;11.90;;;;;;4981273;28;20555;-68
2023/07/12 12:36:30;;;;;;;4.28;1.00;;;22.40;25.60;;;;;;4985395;28;20034;-68
2023/07/12 12:38:59;;;;;;;2.90;0.60;;;22.30;12.20;;;;;;4980187;28;20487;-69
2023/07/12 12:41:39;;;;;;;5.63;1.00;;;22.20;2.70;;;;;;4988218;28;20471;-68
2023/07/12 12:44:09;;;;;;;1.52;0.90;;;22.00;1.50;;;;;;4954030;28;20156;-68
2023/07/12 12:46:35;;;;;;;4.65;0.80;;;22.00;1.40;;;;;;4971711;28;20057;-68
2023/07/12 12:49:01;;;;;;;2.97;0.75;;;21.90;7.90;;;;;;4983669;28;20120;-68
2023/07/12 12:51:30;;;;;;;3.13;0.95;;;21.90;2.50;;;;;;4983556;28;20042;-67
2023/07/12 12:53:57;;;;;;;1.52;0.70;;;22.10;16.50;;;;;;4951301;28;20072;-68
2023/07/12 12:56:23;;;;;;;3.80;0.73;;;22.10;12.90;;;;;;4979424;28;20042;-69